sensor_id;sensor_type;location;lat;lon;timestamp;temperature;humidity
69009;SHT31;56065;52.472;13.380;2022-08-19T00:01:36;23.86;79.46
69009;SHT31;56065;52.472;13.380;2022-08-19T00:04:04;23.78;78.63
69009;SHT31;56065;52.472;13.380;2022-08-19T00:06:30;23.79;78.70
69009;SHT31;56065;52.472;13.380;2022-08-19T00:08:57;23.75;78.52
69009;SHT31;56065;52.472;13.380;2022-08-19T00:11:23;23.75;78.93
69009;SHT31;56065;52.472;13.380;2022-08-19T00:13:49;23.78;79.14
69009;SHT31;56065;52.472;13.380;2022-08-19T00:16:16;23.79;78.85
69009;SHT31;56065;52.472;13.380;2022-08-19T00:18:43;23.82;78.87
69009;SHT31;56065;52.472;13.380;2022-08-19T00:21:09;23.75;78.84
69009;SHT31;56065;52.472;13.380;2022-08-19T00:23:35;23.75;78.84
69009;SHT31;56065;52.472;13.380;2022-08-19T00:26:03;23.72;79.01
69009;SHT31;56065;52.472;13.380;2022-08-19T00:28:29;23.74;79.25
69009;SHT31;56065;52.472;13.380;2022-08-19T00:30:55;23.72;79.38
69009;SHT31;56065;52.472;13.380;2022-08-19T00:33:20;23.69;79.66
69009;SHT31;56065;52.472;13.380;2022-08-19T00:35:46;23.69;79.56
69009;SHT31;56065;52.472;13.380;2022-08-19T00:38:11;23.65;79.12
69009;SHT31;56065;52.472;13.380;2022-08-19T00:40:37;23.64;79.30
69009;SHT31;56065;52.472;13.380;2022-08-19T00:43:10;23.58;79.61
69009;SHT31;56065;52.472;13.380;2022-08-19T00:45:38;23.59;79.51
69009;SHT31;56065;52.472;13.380;2022-08-19T00:48:06;23.58;79.66
69009;SHT31;56065;52.472;13.380;2022-08-19T00:50:33;23.58;79.39
69009;SHT31;56065;52.472;13.380;2022-08-19T00:52:59;23.55;79.78
69009;SHT31;56065;52.472;13.380;2022-08-19T00:55:26;23.53;79.61
69009;SHT31;56065;52.472;13.380;2022-08-19T00:57:56;23.51;79.39
69009;SHT31;56065;52.472;13.380;2022-08-19T01:00:24;23.48;79.56
69009;SHT31;56065;52.472;13.380;2022-08-19T01:02:49;23.45;80.09
69009;SHT31;56065;52.472;13.380;2022-08-19T01:05:23;23.47;80.06
69009;SHT31;56065;52.472;13.380;2022-08-19T01:07:50;23.48;79.86
69009;SHT31;56065;52.472;13.380;2022-08-19T01:10:21;23.43;80.47
69009;SHT31;56065;52.472;13.380;2022-08-19T01:12:49;23.47;80.24
69009;SHT31;56065;52.472;13.380;2022-08-19T01:15:18;23.51;80.00
69009;SHT31;56065;52.472;13.380;2022-08-19T01:17:45;23.53;79.72
69009;SHT31;56065;52.472;13.380;2022-08-19T01:20:13;23.47;79.90
69009;SHT31;56065;52.472;13.380;2022-08-19T01:22:47;23.45;79.85
69009;SHT31;56065;52.472;13.380;2022-08-19T01:25:14;23.43;80.14
69009;SHT31;56065;52.472;13.380;2022-08-19T01:27:43;23.47;79.78
69009;SHT31;56065;52.472;13.380;2022-08-19T01:30:11;23.47;80.06
69009;SHT31;56065;52.472;13.380;2022-08-19T01:32:36;23.33;80.33
69009;SHT31;56065;52.472;13.380;2022-08-19T01:35:03;23.38;80.50
69009;SHT31;56065;52.472;13.380;2022-08-19T01:37:29;23.38;80.61
69009;SHT31;56065;52.472;13.380;2022-08-19T01:40:06;23.44;80.74
69009;SHT31;56065;52.472;13.380;2022-08-19T01:42:33;23.50;80.82
69009;SHT31;56065;52.472;13.380;2022-08-19T01:45:00;23.51;80.45
69009;SHT31;56065;52.472;13.380;2022-08-19T01:47:25;23.50;80.89
69009;SHT31;56065;52.472;13.380;2022-08-19T01:49:50;23.47;80.87
69009;SHT31;56065;52.472;13.380;2022-08-19T01:52:16;23.53;80.63
69009;SHT31;56065;52.472;13.380;2022-08-19T01:54:41;23.50;80.59
69009;SHT31;56065;52.472;13.380;2022-08-19T01:57:10;23.53;80.70
69009;SHT31;56065;52.472;13.380;2022-08-19T01:59:36;23.59;80.55
69009;SHT31;56065;52.472;13.380;2022-08-19T02:02:04;23.66;80.20
69009;SHT31;56065;52.472;13.380;2022-08-19T02:04:32;23.62;80.43
69009;SHT31;56065;52.472;13.380;2022-08-19T02:06:59;23.66;80.44
69009;SHT31;56065;52.472;13.380;2022-08-19T02:09:24;23.78;79.76
69009;SHT31;56065;52.472;13.380;2022-08-19T02:11:49;23.72;79.67
69009;SHT31;56065;52.472;13.380;2022-08-19T02:14:15;23.68;79.94
69009;SHT31;56065;52.472;13.380;2022-08-19T02:16:40;23.61;80.23
69009;SHT31;56065;52.472;13.380;2022-08-19T02:19:06;23.57;80.05
69009;SHT31;56065;52.472;13.380;2022-08-19T02:21:32;23.53;80.05
69009;SHT31;56065;52.472;13.380;2022-08-19T02:23:58;23.45;80.03
69009;SHT31;56065;52.472;13.380;2022-08-19T02:26:23;23.35;80.29
69009;SHT31;56065;52.472;13.380;2022-08-19T02:28:50;23.24;80.66
69009;SHT31;56065;52.472;13.380;2022-08-19T02:31:18;23.18;80.63
69009;SHT31;56065;52.472;13.380;2022-08-19T02:33:45;23.30;80.87
69009;SHT31;56065;52.472;13.380;2022-08-19T02:36:12;23.33;80.41
69009;SHT31;56065;52.472;13.380;2022-08-19T02:38:39;23.40;80.20
69009;SHT31;56065;52.472;13.380;2022-08-19T02:41:10;23.31;80.24
69009;SHT31;56065;52.472;13.380;2022-08-19T02:43:36;23.27;80.36
69009;SHT31;56065;52.472;13.380;2022-08-19T02:46:15;23.18;80.75
69009;SHT31;56065;52.472;13.380;2022-08-19T02:48:43;23.11;80.90
69009;SHT31;56065;52.472;13.380;2022-08-19T02:51:08;23.07;81.32
69009;SHT31;56065;52.472;13.380;2022-08-19T02:53:40;23.04;81.30
69009;SHT31;56065;52.472;13.380;2022-08-19T02:56:07;23.00;81.29
69009;SHT31;56065;52.472;13.380;2022-08-19T02:58:32;22.97;81.40
69009;SHT31;56065;52.472;13.380;2022-08-19T03:00:58;22.89;81.75
69009;SHT31;56065;52.472;13.380;2022-08-19T03:03:23;22.93;81.78
69009;SHT31;56065;52.472;13.380;2022-08-19T03:05:49;22.87;81.59
69009;SHT31;56065;52.472;13.380;2022-08-19T03:08:15;22.83;81.51
69009;SHT31;56065;52.472;13.380;2022-08-19T03:10:42;22.77;81.86
69009;SHT31;56065;52.472;13.380;2022-08-19T03:13:10;22.75;81.87
69009;SHT31;56065;52.472;13.380;2022-08-19T03:15:39;22.70;81.97
69009;SHT31;56065;52.472;13.380;2022-08-19T03:18:05;22.65;82.04
69009;SHT31;56065;52.472;13.380;2022-08-19T03:20:30;22.63;82.25
69009;SHT31;56065;52.472;13.380;2022-08-19T03:22:56;22.60;82.36
69009;SHT31;56065;52.472;13.380;2022-08-19T03:25:21;22.62;82.40
69009;SHT31;56065;52.472;13.380;2022-08-19T03:27:46;22.59;82.22
69009;SHT31;56065;52.472;13.380;2022-08-19T03:30:14;22.55;82.47
69009;SHT31;56065;52.472;13.380;2022-08-19T03:32:39;22.52;82.59
69009;SHT31;56065;52.472;13.380;2022-08-19T03:35:05;22.46;82.67
69009;SHT31;56065;52.472;13.380;2022-08-19T03:37:31;22.46;82.84
69009;SHT31;56065;52.472;13.380;2022-08-19T03:39:56;22.44;82.91
69009;SHT31;56065;52.472;13.380;2022-08-19T03:42:21;22.45;82.85
69009;SHT31;56065;52.472;13.380;2022-08-19T03:44:47;22.49;82.80
69009;SHT31;56065;52.472;13.380;2022-08-19T03:47:12;22.51;82.87
69009;SHT31;56065;52.472;13.380;2022-08-19T03:49:42;22.55;82.67
69009;SHT31;56065;52.472;13.380;2022-08-19T03:52:07;22.49;82.94
69009;SHT31;56065;52.472;13.380;2022-08-19T03:54:33;22.51;82.76
69009;SHT31;56065;52.472;13.380;2022-08-19T03:56:59;22.48;82.86
69009;SHT31;56065;52.472;13.380;2022-08-19T03:59:30;22.49;82.90
69009;SHT31;56065;52.472;13.380;2022-08-19T04:01:58;22.55;82.90
69009;SHT31;56065;52.472;13.380;2022-08-19T04:04:24;22.49;83.07
69009;SHT31;56065;52.472;13.380;2022-08-19T04:06:50;22.53;83.02
69009;SHT31;56065;52.472;13.380;2022-08-19T04:09:17;22.53;82.91
69009;SHT31;56065;52.472;13.380;2022-08-19T04:11:48;22.57;82.87
69009;SHT31;56065;52.472;13.380;2022-08-19T04:14:17;22.65;82.51
69009;SHT31;56065;52.472;13.380;2022-08-19T04:16:43;22.67;82.54
69009;SHT31;56065;52.472;13.380;2022-08-19T04:19:10;22.73;82.48
69009;SHT31;56065;52.472;13.380;2022-08-19T04:21:36;22.73;82.40
69009;SHT31;56065;52.472;13.380;2022-08-19T04:24:02;22.76;82.30
69009;SHT31;56065;52.472;13.380;2022-08-19T04:26:32;22.82;82.29
69009;SHT31;56065;52.472;13.380;2022-08-19T04:28:59;22.85;82.09
69009;SHT31;56065;52.472;13.380;2022-08-19T04:31:27;22.79;82.19
69009;SHT31;56065;52.472;13.380;2022-08-19T04:33:54;22.87;82.15
69009;SHT31;56065;52.472;13.380;2022-08-19T04:36:22;22.89;81.99
69009;SHT31;56065;52.472;13.380;2022-08-19T04:38:49;22.95;82.13
69009;SHT31;56065;52.472;13.380;2022-08-19T04:41:15;23.02;82.05
69009;SHT31;56065;52.472;13.380;2022-08-19T04:43:59;23.02;81.89
69009;SHT31;56065;52.472;13.380;2022-08-19T04:46:24;23.07;81.89
69009;SHT31;56065;52.472;13.380;2022-08-19T04:48:50;23.13;81.58
69009;SHT31;56065;52.472;13.380;2022-08-19T04:51:15;23.20;81.34
69009;SHT31;56065;52.472;13.380;2022-08-19T04:53:42;23.21;81.30
69009;SHT31;56065;52.472;13.380;2022-08-19T04:56:13;23.33;81.04
69009;SHT31;56065;52.472;13.380;2022-08-19T04:58:41;23.44;80.98
69009;SHT31;56065;52.472;13.380;2022-08-19T05:01:08;23.53;80.56
69009;SHT31;56065;52.472;13.380;2022-08-19T05:03:34;23.59;80.46
69009;SHT31;56065;52.472;13.380;2022-08-19T05:06:07;23.66;80.23
69009;SHT31;56065;52.472;13.380;2022-08-19T05:08:35;23.75;80.11
69009;SHT31;56065;52.472;13.380;2022-08-19T05:11:08;23.85;79.54
69009;SHT31;56065;52.472;13.380;2022-08-19T05:13:33;23.88;79.52
69009;SHT31;56065;52.472;13.380;2022-08-19T05:15:59;23.95;79.22
69009;SHT31;56065;52.472;13.380;2022-08-19T05:18:25;24.01;78.97
69009;SHT31;56065;52.472;13.380;2022-08-19T05:21:14;24.05;78.72
69009;SHT31;56065;52.472;13.380;2022-08-19T05:24:24;24.12;78.89
69009;SHT31;56065;52.472;13.380;2022-08-19T05:27:10;24.19;78.67
69009;SHT31;56065;52.472;13.380;2022-08-19T05:29:36;24.25;78.23
69009;SHT31;56065;52.472;13.380;2022-08-19T05:32:04;24.33;78.14
69009;SHT31;56065;52.472;13.380;2022-08-19T05:34:30;24.46;77.80
69009;SHT31;56065;52.472;13.380;2022-08-19T05:36:59;24.56;77.44
69009;SHT31;56065;52.472;13.380;2022-08-19T05:39:28;24.67;77.36
69009;SHT31;56065;52.472;13.380;2022-08-19T05:41:58;24.74;77.43
69009;SHT31;56065;52.472;13.380;2022-08-19T05:44:28;24.81;76.93
69009;SHT31;56065;52.472;13.380;2022-08-19T05:46:58;24.88;76.61
69009;SHT31;56065;52.472;13.380;2022-08-19T05:49:26;24.94;76.30
69009;SHT31;56065;52.472;13.380;2022-08-19T05:51:53;25.14;75.76
69009;SHT31;56065;52.472;13.380;2022-08-19T05:54:19;25.24;75.42
69009;SHT31;56065;52.472;13.380;2022-08-19T05:56:45;25.18;75.62
69009;SHT31;56065;52.472;13.380;2022-08-19T05:59:13;25.22;75.49
69009;SHT31;56065;52.472;13.380;2022-08-19T06:01:41;25.22;75.46
69009;SHT31;56065;52.472;13.380;2022-08-19T06:04:07;25.15;75.47
69009;SHT31;56065;52.472;13.380;2022-08-19T06:06:34;25.10;76.11
69009;SHT31;56065;52.472;13.380;2022-08-19T06:09:01;25.01;76.02
69009;SHT31;56065;52.472;13.380;2022-08-19T06:11:51;25.01;76.65
69009;SHT31;56065;52.472;13.380;2022-08-19T06:14:23;25.04;76.03
69009;SHT31;56065;52.472;13.380;2022-08-19T06:16:49;25.05;76.19
69009;SHT31;56065;52.472;13.380;2022-08-19T06:19:18;25.12;76.03
69009;SHT31;56065;52.472;13.380;2022-08-19T06:21:46;25.26;75.71
69009;SHT31;56065;52.472;13.380;2022-08-19T06:24:15;25.31;75.68
69009;SHT31;56065;52.472;13.380;2022-08-19T06:26:46;25.42;75.57
69009;SHT31;56065;52.472;13.380;2022-08-19T06:29:14;25.59;75.45
69009;SHT31;56065;52.472;13.380;2022-08-19T06:31:46;25.66;74.86
69009;SHT31;56065;52.472;13.380;2022-08-19T06:34:13;25.76;74.78
69009;SHT31;56065;52.472;13.380;2022-08-19T06:36:42;25.86;74.23
69009;SHT31;56065;52.472;13.380;2022-08-19T06:39:11;26.00;73.78
69009;SHT31;56065;52.472;13.380;2022-08-19T06:41:41;26.01;73.91
69009;SHT31;56065;52.472;13.380;2022-08-19T06:44:07;26.00;73.99
69009;SHT31;56065;52.472;13.380;2022-08-19T06:46:33;26.07;73.71
69009;SHT31;56065;52.472;13.380;2022-08-19T06:48:59;26.00;73.93
69009;SHT31;56065;52.472;13.380;2022-08-19T06:51:25;25.96;74.02
69009;SHT31;56065;52.472;13.380;2022-08-19T06:53:52;25.96;73.61
69009;SHT31;56065;52.472;13.380;2022-08-19T06:56:29;25.90;73.58
69009;SHT31;56065;52.472;13.380;2022-08-19T06:59:03;25.83;74.14
69009;SHT31;56065;52.472;13.380;2022-08-19T07:01:29;25.82;74.49
69009;SHT31;56065;52.472;13.380;2022-08-19T07:03:55;25.77;74.50
69009;SHT31;56065;52.472;13.380;2022-08-19T07:06:21;25.73;74.58
69009;SHT31;56065;52.472;13.380;2022-08-19T07:08:47;25.72;74.90
69009;SHT31;56065;52.472;13.380;2022-08-19T07:11:15;25.77;74.46
69009;SHT31;56065;52.472;13.380;2022-08-19T07:13:43;25.85;75.25
69009;SHT31;56065;52.472;13.380;2022-08-19T07:16:14;25.97;74.32
69009;SHT31;56065;52.472;13.380;2022-08-19T07:18:40;26.25;74.30
69009;SHT31;56065;52.472;13.380;2022-08-19T07:21:14;26.40;73.82
69009;SHT31;56065;52.472;13.380;2022-08-19T07:23:41;26.54;73.14
69009;SHT31;56065;52.472;13.380;2022-08-19T07:26:27;26.62;73.45
69009;SHT31;56065;52.472;13.380;2022-08-19T07:28:53;26.74;72.40
69009;SHT31;56065;52.472;13.380;2022-08-19T07:31:21;26.78;72.34
69009;SHT31;56065;52.472;13.380;2022-08-19T07:33:48;26.86;71.99
69009;SHT31;56065;52.472;13.380;2022-08-19T07:36:16;26.94;71.62
69009;SHT31;56065;52.472;13.380;2022-08-19T07:38:44;26.96;71.13
69009;SHT31;56065;52.472;13.380;2022-08-19T07:41:13;26.92;71.89
69009;SHT31;56065;52.472;13.380;2022-08-19T07:43:39;27.07;71.90
69009;SHT31;56065;52.472;13.380;2022-08-19T07:46:06;27.09;71.38
69009;SHT31;56065;52.472;13.380;2022-08-19T07:48:32;27.09;71.38
69009;SHT31;56065;52.472;13.380;2022-08-19T07:51:00;27.27;70.87
69009;SHT31;56065;52.472;13.380;2022-08-19T07:53:30;27.53;70.10
69009;SHT31;56065;52.472;13.380;2022-08-19T07:55:56;27.44;70.38
69009;SHT31;56065;52.472;13.380;2022-08-19T07:58:29;27.39;70.60
69009;SHT31;56065;52.472;13.380;2022-08-19T08:00:55;27.43;70.85
69009;SHT31;56065;52.472;13.380;2022-08-19T08:03:21;27.43;70.53
69009;SHT31;56065;52.472;13.380;2022-08-19T08:06:14;27.33;71.09
69009;SHT31;56065;52.472;13.380;2022-08-19T08:08:58;27.20;71.01
69009;SHT31;56065;52.472;13.380;2022-08-19T08:11:53;27.13;70.97
69009;SHT31;56065;52.472;13.380;2022-08-19T08:14:26;26.94;71.22
69009;SHT31;56065;52.472;13.380;2022-08-19T08:16:51;26.81;71.34
69009;SHT31;56065;52.472;13.380;2022-08-19T08:19:19;26.78;71.87
69009;SHT31;56065;52.472;13.380;2022-08-19T08:21:46;26.64;71.37
69009;SHT31;56065;52.472;13.380;2022-08-19T08:24:12;26.56;71.35
69009;SHT31;56065;52.472;13.380;2022-08-19T08:26:38;26.52;71.99
69009;SHT31;56065;52.472;13.380;2022-08-19T08:29:04;26.52;72.06
69009;SHT31;56065;52.472;13.380;2022-08-19T08:31:29;26.61;72.46
69009;SHT31;56065;52.472;13.380;2022-08-19T08:33:54;26.74;71.82
69009;SHT31;56065;52.472;13.380;2022-08-19T08:36:20;26.84;71.62
69009;SHT31;56065;52.472;13.380;2022-08-19T08:38:45;26.96;71.39
69009;SHT31;56065;52.472;13.380;2022-08-19T08:41:23;27.02;71.07
69009;SHT31;56065;52.472;13.380;2022-08-19T08:43:53;27.09;71.38
69009;SHT31;56065;52.472;13.380;2022-08-19T08:46:35;27.12;71.45
69009;SHT31;56065;52.472;13.380;2022-08-19T08:49:32;27.02;70.60
69009;SHT31;56065;52.472;13.380;2022-08-19T08:52:08;27.09;71.32
69009;SHT31;56065;52.472;13.380;2022-08-19T08:54:42;27.03;71.04
69009;SHT31;56065;52.472;13.380;2022-08-19T08:57:15;26.89;70.56
69009;SHT31;56065;52.472;13.380;2022-08-19T08:59:45;26.88;70.81
69009;SHT31;56065;52.472;13.380;2022-08-19T09:02:16;26.82;71.20
69009;SHT31;56065;52.472;13.380;2022-08-19T09:04:41;26.86;71.11
69009;SHT31;56065;52.472;13.380;2022-08-19T09:07:39;26.91;71.24
69009;SHT31;56065;52.472;13.380;2022-08-19T09:10:10;27.05;70.90
69009;SHT31;56065;52.472;13.380;2022-08-19T09:15:29;27.66;69.73
69009;SHT31;56065;52.472;13.380;2022-08-19T09:18:00;27.68;69.31
69009;SHT31;56065;52.472;13.380;2022-08-19T09:20:27;27.97;68.88
69009;SHT31;56065;52.472;13.380;2022-08-19T09:22:52;28.24;68.45
69009;SHT31;56065;52.472;13.380;2022-08-19T09:25:20;28.48;67.79
69009;SHT31;56065;52.472;13.380;2022-08-19T09:27:50;28.66;66.90
69009;SHT31;56065;52.472;13.380;2022-08-19T09:30:27;28.76;66.43
69009;SHT31;56065;52.472;13.380;2022-08-19T09:32:54;29.02;65.82
69009;SHT31;56065;52.472;13.380;2022-08-19T09:35:21;28.83;65.95
69009;SHT31;56065;52.472;13.380;2022-08-19T09:37:47;29.11;65.77
69009;SHT31;56065;52.472;13.380;2022-08-19T09:40:14;29.20;65.47
69009;SHT31;56065;52.472;13.380;2022-08-19T09:42:40;29.34;65.19
69009;SHT31;56065;52.472;13.380;2022-08-19T09:45:09;29.35;64.68
69009;SHT31;56065;52.472;13.380;2022-08-19T09:47:35;29.37;64.73
69009;SHT31;56065;52.472;13.380;2022-08-19T09:50:08;29.30;64.70
69009;SHT31;56065;52.472;13.380;2022-08-19T09:52:34;29.15;64.71
69009;SHT31;56065;52.472;13.380;2022-08-19T09:55:03;29.13;64.83
69009;SHT31;56065;52.472;13.380;2022-08-19T09:57:28;29.08;64.86
69009;SHT31;56065;52.472;13.380;2022-08-19T09:59:54;29.10;65.12
69009;SHT31;56065;52.472;13.380;2022-08-19T10:02:19;29.11;65.32
69009;SHT31;56065;52.472;13.380;2022-08-19T10:04:44;29.08;65.12
69009;SHT31;56065;52.472;13.380;2022-08-19T10:07:29;29.24;64.82
69009;SHT31;56065;52.472;13.380;2022-08-19T10:09:55;29.13;64.36
69009;SHT31;56065;52.472;13.380;2022-08-19T10:12:20;28.97;65.03
69009;SHT31;56065;52.472;13.380;2022-08-19T10:14:46;28.94;65.40
69009;SHT31;56065;52.472;13.380;2022-08-19T10:17:11;28.84;65.65
69009;SHT31;56065;52.472;13.380;2022-08-19T10:19:37;28.87;65.36
69009;SHT31;56065;52.472;13.380;2022-08-19T10:22:06;28.79;65.50
69009;SHT31;56065;52.472;13.380;2022-08-19T10:24:33;28.70;65.66
69009;SHT31;56065;52.472;13.380;2022-08-19T10:27:00;28.69;65.85
69009;SHT31;56065;52.472;13.380;2022-08-19T10:29:27;28.69;66.09
69009;SHT31;56065;52.472;13.380;2022-08-19T10:31:53;28.70;65.68
69009;SHT31;56065;52.472;13.380;2022-08-19T10:34:19;28.65;65.92
69009;SHT31;56065;52.472;13.380;2022-08-19T10:36:44;28.46;66.02
69009;SHT31;56065;52.472;13.380;2022-08-19T10:39:10;28.22;66.69
69009;SHT31;56065;52.472;13.380;2022-08-19T10:41:39;28.00;67.27
69009;SHT31;56065;52.472;13.380;2022-08-19T10:44:08;27.87;67.23
69009;SHT31;56065;52.472;13.380;2022-08-19T10:46:38;27.63;67.45
69009;SHT31;56065;52.472;13.380;2022-08-19T10:49:04;27.50;68.06
69009;SHT31;56065;52.472;13.380;2022-08-19T10:51:31;27.37;68.37
69009;SHT31;56065;52.472;13.380;2022-08-19T10:54:16;27.29;68.84
69009;SHT31;56065;52.472;13.380;2022-08-19T10:56:41;27.17;68.88
69009;SHT31;56065;52.472;13.380;2022-08-19T10:59:25;27.12;69.13
69009;SHT31;56065;52.472;13.380;2022-08-19T11:01:53;26.94;69.67
69009;SHT31;56065;52.472;13.380;2022-08-19T11:04:19;26.91;69.52
69009;SHT31;56065;52.472;13.380;2022-08-19T11:06:47;26.91;69.96
69009;SHT31;56065;52.472;13.380;2022-08-19T11:09:14;26.88;69.88
69009;SHT31;56065;52.472;13.380;2022-08-19T11:11:40;26.86;70.42
69009;SHT31;56065;52.472;13.380;2022-08-19T11:14:08;26.89;69.77
69009;SHT31;56065;52.472;13.380;2022-08-19T11:16:34;26.89;69.76
69009;SHT31;56065;52.472;13.380;2022-08-19T11:19:00;26.75;69.90
69009;SHT31;56065;52.472;13.380;2022-08-19T11:21:27;26.78;69.87
69009;SHT31;56065;52.472;13.380;2022-08-19T11:23:56;26.78;70.28
69009;SHT31;56065;52.472;13.380;2022-08-19T11:26:23;26.79;70.40
69009;SHT31;56065;52.472;13.380;2022-08-19T11:28:50;26.81;69.88
69009;SHT31;56065;52.472;13.380;2022-08-19T11:31:20;26.82;69.75
69009;SHT31;56065;52.472;13.380;2022-08-19T11:33:47;26.79;70.78
69009;SHT31;56065;52.472;13.380;2022-08-19T11:36:16;26.79;70.16
69009;SHT31;56065;52.472;13.380;2022-08-19T11:38:41;26.81;70.51
69009;SHT31;56065;52.472;13.380;2022-08-19T11:41:07;26.86;70.28
69009;SHT31;56065;52.472;13.380;2022-08-19T11:43:33;26.91;69.70
69009;SHT31;56065;52.472;13.380;2022-08-19T11:46:02;26.94;70.01
69009;SHT31;56065;52.472;13.380;2022-08-19T11:48:28;27.05;69.69
69009;SHT31;56065;52.472;13.380;2022-08-19T11:50:54;27.20;69.49
69009;SHT31;56065;52.472;13.380;2022-08-19T11:53:21;27.29;69.14
69009;SHT31;56065;52.472;13.380;2022-08-19T11:55:47;27.27;69.48
69009;SHT31;56065;52.472;13.380;2022-08-19T11:58:14;27.13;69.14
69009;SHT31;56065;52.472;13.380;2022-08-19T12:00:40;26.89;69.50
69009;SHT31;56065;52.472;13.380;2022-08-19T12:03:07;26.81;69.79
69009;SHT31;56065;52.472;13.380;2022-08-19T12:05:33;26.71;70.41
69009;SHT31;56065;52.472;13.380;2022-08-19T12:07:58;26.72;70.77
69009;SHT31;56065;52.472;13.380;2022-08-19T12:10:24;26.71;70.62
69009;SHT31;56065;52.472;13.380;2022-08-19T12:12:49;26.68;70.60
69009;SHT31;56065;52.472;13.380;2022-08-19T12:15:15;26.69;70.54
69009;SHT31;56065;52.472;13.380;2022-08-19T12:17:41;26.71;70.21
69009;SHT31;56065;52.472;13.380;2022-08-19T12:20:11;26.74;70.57
69009;SHT31;56065;52.472;13.380;2022-08-19T12:22:38;26.79;70.35
69009;SHT31;56065;52.472;13.380;2022-08-19T12:25:05;26.88;70.04
69009;SHT31;56065;52.472;13.380;2022-08-19T12:27:31;26.99;70.01
69009;SHT31;56065;52.472;13.380;2022-08-19T12:29:56;27.10;69.58
69009;SHT31;56065;52.472;13.380;2022-08-19T12:32:22;27.15;69.57
69009;SHT31;56065;52.472;13.380;2022-08-19T12:34:49;27.19;69.42
69009;SHT31;56065;52.472;13.380;2022-08-19T12:37:15;27.16;68.76
69009;SHT31;56065;52.472;13.380;2022-08-19T12:39:42;27.22;68.86
69009;SHT31;56065;52.472;13.380;2022-08-19T12:42:09;27.33;68.54
69009;SHT31;56065;52.472;13.380;2022-08-19T12:44:37;27.61;68.46
69009;SHT31;56065;52.472;13.380;2022-08-19T12:47:02;27.98;67.01
69009;SHT31;56065;52.472;13.380;2022-08-19T12:49:30;28.35;66.43
69009;SHT31;56065;52.472;13.380;2022-08-19T12:51:56;28.60;65.76
69009;SHT31;56065;52.472;13.380;2022-08-19T12:54:23;28.96;65.07
69009;SHT31;56065;52.472;13.380;2022-08-19T12:56:48;29.33;63.96
69009;SHT31;56065;52.472;13.380;2022-08-19T12:59:14;29.90;62.32
69009;SHT31;56065;52.472;13.380;2022-08-19T13:01:43;30.33;61.63
69009;SHT31;56065;52.472;13.380;2022-08-19T13:04:09;30.61;61.07
69009;SHT31;56065;52.472;13.380;2022-08-19T13:06:34;30.61;60.93
69009;SHT31;56065;52.472;13.380;2022-08-19T13:08:59;30.39;61.52
69009;SHT31;56065;52.472;13.380;2022-08-19T13:11:25;29.95;61.73
69009;SHT31;56065;52.472;13.380;2022-08-19T13:13:51;29.47;62.23
69009;SHT31;56065;52.472;13.380;2022-08-19T13:16:18;29.15;62.71
69009;SHT31;56065;52.472;13.380;2022-08-19T13:18:46;28.87;63.54
69009;SHT31;56065;52.472;13.380;2022-08-19T13:21:12;28.67;63.97
69009;SHT31;56065;52.472;13.380;2022-08-19T13:23:39;28.59;64.34
69009;SHT31;56065;52.472;13.380;2022-08-19T13:26:07;28.52;64.54
69009;SHT31;56065;52.472;13.380;2022-08-19T13:28:34;28.46;65.04
69009;SHT31;56065;52.472;13.380;2022-08-19T13:31:31;28.22;64.96
69009;SHT31;56065;52.472;13.380;2022-08-19T13:34:17;28.18;65.43
69009;SHT31;56065;52.472;13.380;2022-08-19T13:36:43;28.06;65.36
69009;SHT31;56065;52.472;13.380;2022-08-19T13:39:09;28.04;65.54
69009;SHT31;56065;52.472;13.380;2022-08-19T13:41:35;28.01;65.90
69009;SHT31;56065;52.472;13.380;2022-08-19T13:44:02;27.97;65.71
69009;SHT31;56065;52.472;13.380;2022-08-19T13:46:27;27.97;65.97
69009;SHT31;56065;52.472;13.380;2022-08-19T13:48:55;27.93;65.96
69009;SHT31;56065;52.472;13.380;2022-08-19T13:51:21;28.00;66.24
69009;SHT31;56065;52.472;13.380;2022-08-19T13:53:47;28.19;65.59
69009;SHT31;56065;52.472;13.380;2022-08-19T13:56:16;28.38;65.05
69009;SHT31;56065;52.472;13.380;2022-08-19T13:58:41;28.63;64.92
69009;SHT31;56065;52.472;13.380;2022-08-19T14:01:08;28.99;64.15
69009;SHT31;56065;52.472;13.380;2022-08-19T14:03:34;29.24;64.01
69009;SHT31;56065;52.472;13.380;2022-08-19T14:06:00;29.30;63.53
69009;SHT31;56065;52.472;13.380;2022-08-19T14:08:26;29.35;63.46
69009;SHT31;56065;52.472;13.380;2022-08-19T14:10:53;29.04;63.51
69009;SHT31;56065;52.472;13.380;2022-08-19T14:13:21;28.97;63.60
69009;SHT31;56065;52.472;13.380;2022-08-19T14:15:47;28.93;64.00
69009;SHT31;56065;52.472;13.380;2022-08-19T14:18:13;28.87;63.79
69009;SHT31;56065;52.472;13.380;2022-08-19T14:20:39;28.84;64.19
69009;SHT31;56065;52.472;13.380;2022-08-19T14:23:05;28.89;64.30
69009;SHT31;56065;52.472;13.380;2022-08-19T14:25:31;28.86;64.24
69009;SHT31;56065;52.472;13.380;2022-08-19T14:27:57;28.87;64.20
69009;SHT31;56065;52.472;13.380;2022-08-19T14:30:26;28.67;64.24
69009;SHT31;56065;52.472;13.380;2022-08-19T14:32:54;28.67;64.25
69009;SHT31;56065;52.472;13.380;2022-08-19T14:35:20;28.63;64.59
69009;SHT31;56065;52.472;13.380;2022-08-19T14:37:49;28.59;64.96
69009;SHT31;56065;52.472;13.380;2022-08-19T14:40:18;28.48;64.80
69009;SHT31;56065;52.472;13.380;2022-08-19T14:42:47;28.26;65.19
69009;SHT31;56065;52.472;13.380;2022-08-19T14:45:13;27.97;65.45
69009;SHT31;56065;52.472;13.380;2022-08-19T14:47:39;27.84;65.65
69009;SHT31;56065;52.472;13.380;2022-08-19T14:50:09;27.87;65.73
69009;SHT31;56065;52.472;13.380;2022-08-19T14:52:35;27.95;66.00
69009;SHT31;56065;52.472;13.380;2022-08-19T14:55:02;28.00;66.02
69009;SHT31;56065;52.472;13.380;2022-08-19T14:57:27;28.05;66.05
69009;SHT31;56065;52.472;13.380;2022-08-19T14:59:53;28.00;65.97
69009;SHT31;56065;52.472;13.380;2022-08-19T15:02:18;27.78;66.33
69009;SHT31;56065;52.472;13.380;2022-08-19T15:04:45;27.70;66.42
69009;SHT31;56065;52.472;13.380;2022-08-19T15:07:10;27.61;66.83
69009;SHT31;56065;52.472;13.380;2022-08-19T15:09:36;27.53;66.70
69009;SHT31;56065;52.472;13.380;2022-08-19T15:12:02;27.40;67.08
69009;SHT31;56065;52.472;13.380;2022-08-19T15:14:28;27.27;67.44
69009;SHT31;56065;52.472;13.380;2022-08-19T15:16:58;27.25;67.78
69009;SHT31;56065;52.472;13.380;2022-08-19T15:19:24;27.15;67.26
69009;SHT31;56065;52.472;13.380;2022-08-19T15:21:49;27.06;67.20
69009;SHT31;56065;52.472;13.380;2022-08-19T15:24:14;26.92;67.64